Terminal Aerodrome Forecast
Issued by NWS

Home | Current Version | Previous Version | Text Only | Print | Product List | Glossary On
Versions: 1 2 3 4 5 6 7 8 9 10 11 12
000
FTUS45 KTWC 311700
TAFOLS
TAF
KOLS 311737Z 3118/0118 16008G18KT P6SM SCT080 SCT150
     FM010300 15007KT P6SM SCT090 SCT250
     FM010600 VRB04KT P6SM SCT250
     FM011700 18012KT P6SM FEW070 SCT180=

USA.gov is the U.S. government's official web portal to all federal, state and local government web resources and services.